Terminal Aerodrome Forecast
Issued by NWS Louisville, KY

Home | Current Version | Previous Version | Text Only | Print | Product List | Glossary On
Versions: 1 2 3 4 5 6 7 8 9 10 11 12
000
FTUS43 KLMK 251123
TAFSDF
TAF
KSDF 251123Z 2512/2618 29005KT P6SM SKC
     FM251500 30009KT P6SM SCT045
     FM260000 VRB03KT P6SM SKC
     FM261500 34006KT P6SM SCT045=

USA.gov is the U.S. government's official web portal to all federal, state and local government web resources and services.